createdAt,value
2018-03-26T00:01:01.567Z,27.83
2018-03-26T00:03:30.679Z,33.03
2018-03-26T00:05:58.999Z,32.30
2018-03-26T00:08:28.031Z,30.40
2018-03-26T00:10:56.293Z,30.60
2018-03-26T00:13:24.557Z,33.37
2018-03-26T00:15:53.732Z,27.07
2018-03-26T00:18:23.228Z,27.73
2018-03-26T00:20:52.253Z,27.30
2018-03-26T00:23:21.241Z,28.93
2018-03-26T00:25:49.500Z,27.90
2018-03-26T00:28:18.532Z,28.67
2018-03-26T00:30:46.801Z,28.33
2018-03-26T00:33:15.073Z,27.40
2018-03-26T00:35:43.362Z,26.03
2018-03-26T00:38:11.635Z,26.23
2018-03-26T00:40:39.912Z,26.33
2018-03-26T00:43:08.171Z,31.83
2018-03-26T00:45:36.442Z,30.17
2018-03-26T00:48:04.712Z,27.27
2018-03-26T00:50:33.747Z,30.97
2018-03-26T00:53:02.019Z,29.97
2018-03-26T00:55:30.312Z,27.97
2018-03-26T00:57:58.584Z,28.07
2018-03-26T01:00:26.845Z,31.00
2018-03-26T01:02:55.112Z,30.40
2018-03-26T01:05:23.401Z,26.63
2018-03-26T01:07:53.037Z,30.40
2018-03-26T01:10:21.313Z,38.43
2018-03-26T01:12:49.571Z,29.43
2018-03-26T01:15:17.829Z,30.33
2018-03-26T01:17:46.095Z,30.83
2018-03-26T01:20:14.365Z,32.17
2018-03-26T01:22:42.664Z,24.40
2018-03-26T01:25:10.939Z,28.80
2018-03-26T01:27:39.208Z,26.87
2018-03-26T01:30:08.841Z,32.70
2018-03-26T01:32:37.113Z,28.27
2018-03-26T01:35:05.371Z,29.50
2018-03-26T01:37:33.643Z,30.70
2018-03-26T01:40:01.906Z,28.43
2018-03-26T01:42:30.190Z,32.00
2018-03-26T01:44:59.282Z,28.97
2018-03-26T01:47:27.540Z,31.67
2018-03-26T01:49:55.809Z,27.70
2018-03-26T01:52:24.841Z,32.10
2018-03-26T01:54:53.110Z,34.63
2018-03-26T01:57:21.458Z,26.97
2018-03-26T01:59:50.476Z,27.67
2018-03-26T02:02:18.734Z,28.53
2018-03-26T02:04:47.073Z,29.57
2018-03-26T02:07:16.056Z,27.53
2018-03-26T02:09:44.320Z,30.87
2018-03-26T02:12:13.483Z,29.40
2018-03-26T02:14:41.744Z,28.00
2018-03-26T02:17:10.790Z,24.50
2018-03-26T02:19:39.054Z,32.20
2018-03-26T02:22:07.311Z,30.87
2018-03-26T02:24:35.582Z,21.50
2018-03-26T02:27:03.847Z,30.63
2018-03-26T02:29:32.122Z,32.20
2018-03-26T02:32:01.154Z,28.37
2018-03-26T02:34:29.430Z,32.37
2018-03-26T02:36:57.756Z,29.03
2018-03-26T02:39:26.051Z,30.80
2018-03-26T02:41:55.216Z,31.73
2018-03-26T02:44:23.484Z,28.37
2018-03-26T02:46:52.532Z,27.67
2018-03-26T02:49:21.645Z,29.77
2018-03-26T02:51:49.957Z,27.87
2018-03-26T02:54:18.223Z,34.60
2018-03-26T02:56:46.491Z,32.77
2018-03-26T02:59:14.766Z,32.63
2018-03-26T03:01:43.027Z,34.97
2018-03-26T03:04:11.282Z,26.87
2018-03-26T03:06:39.563Z,26.93
2018-03-26T03:09:07.838Z,28.23
2018-03-26T03:11:36.099Z,31.47
2018-03-26T03:14:05.132Z,29.17
2018-03-26T03:16:33.399Z,24.40
2018-03-26T03:19:01.672Z,27.00
2018-03-26T03:21:29.930Z,27.27
2018-03-26T03:23:58.188Z,29.77
2018-03-26T03:26:28.083Z,28.50
2018-03-26T03:28:57.145Z,27.67
2018-03-26T03:31:25.424Z,22.63
2018-03-26T03:33:53.706Z,22.57
2018-03-26T03:36:21.969Z,25.83
2018-03-26T03:38:50.236Z,23.23
2018-03-26T03:41:18.502Z,26.77
2018-03-26T03:43:46.784Z,22.80
2018-03-26T03:46:15.071Z,22.33
2018-03-26T03:48:43.370Z,24.60
2018-03-26T03:51:11.645Z,25.87
2018-03-26T03:53:39.926Z,26.27
2018-03-26T03:56:09.219Z,25.80
2018-03-26T03:58:38.465Z,27.47
2018-03-26T04:01:07.515Z,24.30
2018-03-26T04:03:35.792Z,26.80
2018-03-26T04:06:04.099Z,26.83
2018-03-26T04:08:32.365Z,28.77
2018-03-26T04:11:01.308Z,25.97
2018-03-26T04:13:29.564Z,25.93
2018-03-26T04:15:57.840Z,23.97
2018-03-26T04:18:26.135Z,28.70
2018-03-26T04:20:54.396Z,27.17
2018-03-26T04:23:22.662Z,27.63
2018-03-26T04:25:51.744Z,24.50
2018-03-26T04:28:20.751Z,24.57
2018-03-26T04:30:49.803Z,25.00
2018-03-26T04:33:18.073Z,23.83
2018-03-26T04:35:46.340Z,27.00
2018-03-26T04:38:15.146Z,29.20
2018-03-26T04:40:43.402Z,29.47
2018-03-26T04:43:11.674Z,28.03
2018-03-26T04:45:39.951Z,25.70
2018-03-26T04:48:08.224Z,26.77
2018-03-26T04:50:36.517Z,23.30
2018-03-26T04:53:04.782Z,24.97
2018-03-26T04:55:33.060Z,25.60
2018-03-26T04:58:01.344Z,29.23
2018-03-26T05:00:29.657Z,25.57
2018-03-26T05:02:58.691Z,30.00
2018-03-26T05:05:26.987Z,28.57
2018-03-26T05:07:55.251Z,27.30
2018-03-26T05:10:24.110Z,24.50
2018-03-26T05:12:53.887Z,28.07
2018-03-26T05:15:22.227Z,28.70
2018-03-26T05:17:50.522Z,25.43
2018-03-26T05:20:18.788Z,29.13
2018-03-26T05:22:49.960Z,29.70
2018-03-26T05:25:18.260Z,28.90
2018-03-26T05:27:49.178Z,26.77
2018-03-26T05:30:20.415Z,28.20
2018-03-26T05:32:48.718Z,30.50
2018-03-26T05:35:16.978Z,25.80
2018-03-26T05:37:45.260Z,27.13
2018-03-26T05:40:13.548Z,29.80
2018-03-26T05:42:42.601Z,29.10
2018-03-26T05:45:11.897Z,29.30
2018-03-26T05:47:40.792Z,27.70
2018-03-26T05:50:14.164Z,28.10
2018-03-26T05:52:43.503Z,25.00
2018-03-26T05:55:12.701Z,23.60
2018-03-26T05:57:41.499Z,28.20
2018-03-26T06:00:11.029Z,26.70
2018-03-26T06:02:39.328Z,28.10
2018-03-26T06:05:07.585Z,26.60
2018-03-26T06:07:36.733Z,26.97
2018-03-26T06:10:05.010Z,29.50
2018-03-26T06:12:33.278Z,26.03
2018-03-26T06:15:02.524Z,27.93
2018-03-26T06:17:31.110Z,27.77
2018-03-26T06:20:00.274Z,25.90
2018-03-26T06:22:29.348Z,29.43
2018-03-26T06:24:58.593Z,24.20
2018-03-26T06:27:27.664Z,27.23
2018-03-26T06:29:56.628Z,23.37
2018-03-26T06:32:26.992Z,27.27
2018-03-26T06:34:57.985Z,27.40
2018-03-26T06:37:34.544Z,22.43
2018-03-26T06:40:05.122Z,25.00
2018-03-26T06:42:34.540Z,26.57
2018-03-26T06:45:03.387Z,26.40
2018-03-26T06:47:33.155Z,25.87
2018-03-26T06:50:03.368Z,26.20
2018-03-26T06:52:32.446Z,27.57
2018-03-26T06:55:01.568Z,26.63
2018-03-26T06:57:31.823Z,25.33
2018-03-26T07:00:00.099Z,30.37
2018-03-26T07:02:30.196Z,26.80
2018-03-26T07:04:59.225Z,27.17
2018-03-26T07:07:27.521Z,27.20
2018-03-26T07:09:55.806Z,24.60
2018-03-26T07:12:24.157Z,30.70
2018-03-26T07:14:52.412Z,29.83
2018-03-26T07:17:21.297Z,25.50
2018-03-26T07:19:49.582Z,27.90
2018-03-26T07:22:17.876Z,27.10
2018-03-26T07:24:46.146Z,26.57
2018-03-26T07:27:14.440Z,24.33
2018-03-26T07:29:42.719Z,28.07
2018-03-26T07:32:11.820Z,22.70
2018-03-26T07:34:40.189Z,25.63
2018-03-26T07:37:09.247Z,26.60
2018-03-26T07:39:37.561Z,25.60
2018-03-26T07:42:05.841Z,26.43
2018-03-26T07:44:34.185Z,27.10
2018-03-26T07:47:03.241Z,29.80
2018-03-26T07:49:32.289Z,27.37
2018-03-26T07:52:00.589Z,28.63
2018-03-26T07:54:28.903Z,26.33
2018-03-26T07:56:57.953Z,29.73
2018-03-26T07:59:26.242Z,28.70
2018-03-26T08:01:55.036Z,27.37
2018-03-26T08:04:23.297Z,27.63
2018-03-26T08:06:51.569Z,27.93
2018-03-26T08:09:21.396Z,31.80
2018-03-26T08:11:49.668Z,17.80
2018-03-26T08:14:17.975Z,26.20
2018-03-26T08:16:47.912Z,29.13
2018-03-26T08:19:17.441Z,27.43
2018-03-26T08:21:45.741Z,29.83
2018-03-26T08:24:14.015Z,33.17
2018-03-26T08:26:42.290Z,35.83
2018-03-26T08:29:10.604Z,29.30
2018-03-26T08:31:39.666Z,27.23
2018-03-26T08:34:07.990Z,30.73
2018-03-26T08:36:36.307Z,30.17
2018-03-26T08:39:04.606Z,30.00
2018-03-26T08:41:34.373Z,32.33
2018-03-26T08:44:02.686Z,33.20
2018-03-26T08:46:30.960Z,25.60
2018-03-26T08:48:59.252Z,33.80
2018-03-26T08:51:29.103Z,30.13
2018-03-26T08:53:57.408Z,29.73
2018-03-26T08:56:25.657Z,31.80
2018-03-26T08:58:53.949Z,28.30
2018-03-26T09:01:22.237Z,29.00
2018-03-26T09:03:50.494Z,30.27
2018-03-26T09:06:18.751Z,29.70
2018-03-26T09:08:47.788Z,29.03
2018-03-26T09:11:16.069Z,28.70
2018-03-26T09:13:44.335Z,27.80
2018-03-26T09:16:12.620Z,25.50
2018-03-26T09:18:40.878Z,20.53
2018-03-26T09:21:09.159Z,24.13
2018-03-26T09:23:37.518Z,28.00
2018-03-26T09:26:05.895Z,26.03
2018-03-26T09:28:34.132Z,28.33
2018-03-26T09:31:03.159Z,29.97
2018-03-26T09:33:31.468Z,30.17
2018-03-26T09:35:59.731Z,31.57
2018-03-26T09:38:28.091Z,30.03
2018-03-26T09:40:56.349Z,28.37
2018-03-26T09:43:24.625Z,28.77
2018-03-26T09:45:53.639Z,30.33
2018-03-26T09:48:21.897Z,31.50
2018-03-26T09:50:50.968Z,31.80
2018-03-26T09:53:19.303Z,31.30
2018-03-26T09:55:47.551Z,32.07
2018-03-26T09:58:15.798Z,34.53
2018-03-26T10:00:49.095Z,31.93
2018-03-26T10:03:17.372Z,28.40
2018-03-26T10:05:45.690Z,28.80
2018-03-26T10:08:13.967Z,28.97
2018-03-26T10:10:42.244Z,31.00
2018-03-26T10:13:10.659Z,27.47
2018-03-26T10:15:38.932Z,33.37
2018-03-26T10:18:07.216Z,35.07
2018-03-26T10:20:35.520Z,32.33
2018-03-26T10:23:03.787Z,32.10
2018-03-26T10:25:32.975Z,35.20
2018-03-26T10:28:01.343Z,37.67
2018-03-26T10:30:29.620Z,37.20
2018-03-26T10:32:57.892Z,36.00
2018-03-26T10:35:26.166Z,35.50
2018-03-26T10:37:54.432Z,38.47
2018-03-26T10:40:22.839Z,33.40
2018-03-26T10:42:51.131Z,37.50
2018-03-26T10:45:20.197Z,31.90
2018-03-26T10:47:48.458Z,33.57
2018-03-26T10:50:16.744Z,33.90
2018-03-26T10:52:45.121Z,33.27
2018-03-26T10:55:13.524Z,30.70
2018-03-26T10:57:41.821Z,31.53
2018-03-26T11:00:11.083Z,38.00
2018-03-26T11:02:39.355Z,28.13
2018-03-26T11:05:07.619Z,32.80
2018-03-26T11:07:36.009Z,29.87
2018-03-26T11:10:04.286Z,27.67
2018-03-26T11:12:32.556Z,28.03
2018-03-26T11:15:00.892Z,23.50
2018-03-26T11:17:29.188Z,24.00
2018-03-26T11:19:57.491Z,20.97
2018-03-26T11:22:25.739Z,25.30
2018-03-26T11:24:54.078Z,23.73
2018-03-26T11:27:23.263Z,21.10
2018-03-26T11:29:51.619Z,18.10
2018-03-26T11:32:20.039Z,20.63
2018-03-26T11:34:49.090Z,20.20
2018-03-26T11:37:17.366Z,18.80
2018-03-26T11:39:45.704Z,18.37
2018-03-26T11:42:14.734Z,16.87
2018-03-26T11:44:43.026Z,15.63
2018-03-26T11:47:11.308Z,22.07
2018-03-26T11:49:39.649Z,23.63
2018-03-26T11:52:08.657Z,20.83
2018-03-26T11:54:36.949Z,19.00
2018-03-26T11:57:05.219Z,19.73
2018-03-26T11:59:33.564Z,21.43
2018-03-26T12:02:02.650Z,15.17
2018-03-26T12:04:30.983Z,18.20
2018-03-26T12:06:59.260Z,20.10
2018-03-26T12:09:27.751Z,16.80
2018-03-26T12:11:56.030Z,14.90
2018-03-26T12:14:24.325Z,16.53
2018-03-26T12:16:53.472Z,15.47
2018-03-26T12:19:21.880Z,15.47
2018-03-26T12:21:50.132Z,15.00
2018-03-26T12:27:26.219Z,18.50
2018-03-26T12:30:07.584Z,12.33
2018-03-26T12:32:35.848Z,13.90
2018-03-26T12:35:16.831Z,14.30
2018-03-26T12:37:45.102Z,15.37
2018-03-26T12:40:25.962Z,15.17
2018-03-26T12:42:54.286Z,14.17
2018-03-26T12:45:34.791Z,17.10
2018-03-26T12:48:03.127Z,12.77
2018-03-26T12:50:44.271Z,11.90
2018-03-26T12:53:13.495Z,14.20
2018-03-26T12:55:41.765Z,16.60
2018-03-26T12:58:22.009Z,17.43
2018-03-26T13:01:02.502Z,16.37
2018-03-26T13:03:30.800Z,16.10
2018-03-26T13:05:59.960Z,15.37
2018-03-26T13:08:28.245Z,16.10
2018-03-26T13:10:56.516Z,17.63
2018-03-26T13:13:24.830Z,14.87
2018-03-26T13:15:53.898Z,16.57
2018-03-26T13:18:22.931Z,15.37
2018-03-26T13:20:51.230Z,14.57
2018-03-26T13:23:19.501Z,13.57
2018-03-26T13:25:47.784Z,13.60
2018-03-26T13:28:16.908Z,12.53
2018-03-26T13:30:45.154Z,12.77
2018-03-26T13:33:13.446Z,11.50
2018-03-26T13:35:41.750Z,13.60
2018-03-26T13:38:10.036Z,12.87
2018-03-26T13:40:38.320Z,12.27
2018-03-26T13:43:07.375Z,12.60
2018-03-26T13:45:35.740Z,13.30
2018-03-26T13:48:04.024Z,12.23
2018-03-26T13:50:32.329Z,12.20
2018-03-26T13:53:00.612Z,12.03
2018-03-26T13:55:28.921Z,12.60
2018-03-26T13:57:57.178Z,11.20
2018-03-26T14:00:26.231Z,11.37
2018-03-26T14:02:54.479Z,10.80
2018-03-26T14:05:22.770Z,12.00
2018-03-26T14:07:51.098Z,10.60
2018-03-26T14:10:32.160Z,8.00
2018-03-26T14:13:12.422Z,11.03
2018-03-26T14:15:53.674Z,10.43
2018-03-26T14:18:21.946Z,9.60
2018-03-26T14:20:50.450Z,10.80
2018-03-26T14:23:18.773Z,10.80
2018-03-26T14:25:47.173Z,8.30
2018-03-26T14:28:15.464Z,10.40
2018-03-26T14:30:43.839Z,10.10
2018-03-26T14:33:12.145Z,9.30
2018-03-26T14:35:40.441Z,8.50
2018-03-26T14:38:09.483Z,9.40
2018-03-26T14:40:37.755Z,7.57
2018-03-26T14:43:06.143Z,8.37
2018-03-26T14:45:34.442Z,7.97
2018-03-26T14:48:03.496Z,7.20
2018-03-26T14:50:31.787Z,8.00
2018-03-26T14:53:00.065Z,6.93
2018-03-26T14:55:28.323Z,7.47
2018-03-26T14:57:56.578Z,7.00
2018-03-26T15:00:24.893Z,6.10
2018-03-26T15:02:53.175Z,6.63
2018-03-26T15:05:21.470Z,7.23
2018-03-26T15:07:49.771Z,6.43
2018-03-26T15:10:18.831Z,6.87
2018-03-26T15:12:47.241Z,5.43
2018-03-26T15:15:16.254Z,7.40
2018-03-26T15:17:45.291Z,7.37
2018-03-26T15:20:13.531Z,6.50
2018-03-26T15:22:42.781Z,6.20
2018-03-26T15:25:11.241Z,6.00
2018-03-26T15:27:39.498Z,5.30
2018-03-26T15:30:07.789Z,5.90
2018-03-26T15:32:36.069Z,6.10
2018-03-26T15:35:04.367Z,5.53
2018-03-26T15:37:32.732Z,5.80
2018-03-26T15:40:01.071Z,5.00
2018-03-26T15:42:29.359Z,5.47
2018-03-26T15:44:57.603Z,11.30
2018-03-26T15:47:25.873Z,13.90
2018-03-26T15:49:55.012Z,12.60
2018-03-26T15:52:23.296Z,12.00
2018-03-26T15:54:51.557Z,12.30
2018-03-26T15:57:19.821Z,14.33
2018-03-26T15:59:48.088Z,13.70
2018-03-26T16:04:52.687Z,14.33
2018-03-26T16:07:20.976Z,15.13
2018-03-26T16:09:49.283Z,13.30
2018-03-26T16:12:18.929Z,13.90
2018-03-26T16:14:47.177Z,13.90
2018-03-26T16:17:15.438Z,14.10
2018-03-26T16:19:43.710Z,14.47
2018-03-26T16:22:12.756Z,14.23
2018-03-26T16:24:41.022Z,12.27
2018-03-26T16:27:09.844Z,15.03
2018-03-26T16:29:38.214Z,14.23
2018-03-26T16:32:06.451Z,12.90
2018-03-26T16:34:34.705Z,12.07
2018-03-26T16:37:03.749Z,10.57
2018-03-26T16:39:31.986Z,11.03
2018-03-26T16:42:12.095Z,9.70
2018-03-26T16:44:40.570Z,11.50
2018-03-26T16:47:08.888Z,12.50
2018-03-26T16:49:37.900Z,12.40
2018-03-26T16:52:06.174Z,12.30
2018-03-26T16:54:34.443Z,11.57
2018-03-26T16:57:02.700Z,12.77
2018-03-26T16:59:31.869Z,12.80
2018-03-26T17:02:00.139Z,11.60
2018-03-26T17:04:28.409Z,7.87
2018-03-26T17:06:56.651Z,9.00
2018-03-26T17:09:24.906Z,7.17
2018-03-26T17:11:53.904Z,6.97
2018-03-26T17:14:22.150Z,6.20
2018-03-26T17:16:50.395Z,6.40
2018-03-26T17:19:18.668Z,5.53
2018-03-26T17:21:46.929Z,7.53
2018-03-26T17:24:15.159Z,5.00
2018-03-26T17:26:44.169Z,4.47
2018-03-26T17:29:12.434Z,4.00
2018-03-26T17:31:40.698Z,4.10
2018-03-26T17:34:08.959Z,4.13
2018-03-26T17:36:37.257Z,4.77
2018-03-26T17:39:06.271Z,3.10
2018-03-26T17:41:34.524Z,4.00
2018-03-26T17:44:02.762Z,4.63
2018-03-26T17:46:31.563Z,3.90
2018-03-26T17:48:59.821Z,3.67
2018-03-26T17:51:28.078Z,3.13
2018-03-26T17:53:56.331Z,5.23
2018-03-26T17:56:25.390Z,4.77
2018-03-26T17:58:53.830Z,4.10
2018-03-26T18:01:22.105Z,4.13
2018-03-26T18:03:50.405Z,3.77
2018-03-26T18:06:18.636Z,4.20
2018-03-26T18:08:47.674Z,5.53
2018-03-26T18:11:15.973Z,5.10
2018-03-26T18:13:44.214Z,4.20
2018-03-26T18:16:12.461Z,3.63
2018-03-26T18:18:40.781Z,4.53
2018-03-26T18:21:09.027Z,3.43
2018-03-26T18:23:37.290Z,3.90
2018-03-26T18:26:06.319Z,4.43
2018-03-26T18:28:34.601Z,4.90
2018-03-26T18:31:02.842Z,3.93
2018-03-26T18:33:31.112Z,5.10
2018-03-26T18:36:00.513Z,5.80
2018-03-26T18:38:29.534Z,5.20
2018-03-26T18:40:57.792Z,6.53
2018-03-26T18:43:26.057Z,7.07
2018-03-26T18:45:54.394Z,6.77
2018-03-26T18:48:22.653Z,5.33
2018-03-26T18:50:50.894Z,5.50
2018-03-26T18:53:19.143Z,6.03
2018-03-26T18:55:47.384Z,5.43
2018-03-26T18:58:15.627Z,5.17
2018-03-26T19:00:43.943Z,4.23
2018-03-26T19:03:12.180Z,4.57
2018-03-26T19:05:41.211Z,3.90
2018-03-26T19:08:09.446Z,5.03
2018-03-26T19:10:37.694Z,4.97
2018-03-26T19:13:06.691Z,4.67
2018-03-26T19:15:35.707Z,3.60
2018-03-26T19:18:03.941Z,4.60
2018-03-26T19:20:32.197Z,3.90
2018-03-26T19:23:00.470Z,5.70
2018-03-26T19:25:28.698Z,4.97
2018-03-26T19:27:57.704Z,4.00
2018-03-26T19:30:26.812Z,9.77
2018-03-26T19:32:55.044Z,7.50
2018-03-26T19:35:24.058Z,6.00
2018-03-26T19:37:52.302Z,6.00
2018-03-26T19:40:20.544Z,5.80
2018-03-26T19:42:48.808Z,5.10
2018-03-26T19:45:17.053Z,4.60
2018-03-26T19:47:46.118Z,4.53
2018-03-26T19:50:14.368Z,4.57
2018-03-26T19:52:42.703Z,4.63
2018-03-26T19:55:11.769Z,4.90
2018-03-26T19:57:40.019Z,3.80
2018-03-26T20:00:08.241Z,3.87
2018-03-26T20:02:37.276Z,4.77
2018-03-26T20:05:05.532Z,5.83
2018-03-26T20:07:33.795Z,6.43
2018-03-26T20:10:02.819Z,6.30
2018-03-26T20:12:31.076Z,7.50
2018-03-26T20:14:59.338Z,5.27
2018-03-26T20:17:28.357Z,5.40
2018-03-26T20:19:56.632Z,5.90
2018-03-26T20:22:24.888Z,5.77
2018-03-26T20:24:54.028Z,4.90
2018-03-26T20:27:22.267Z,4.83
2018-03-26T20:29:50.476Z,5.37
2018-03-26T20:32:18.688Z,6.70
2018-03-26T20:34:47.652Z,6.50
2018-03-26T20:37:15.948Z,5.70
2018-03-26T20:39:44.976Z,6.60
2018-03-26T20:42:13.239Z,5.73
2018-03-26T20:44:42.286Z,6.00
2018-03-26T20:47:10.666Z,5.00
2018-03-26T20:49:38.910Z,5.17
2018-03-26T20:52:07.171Z,5.00
2018-03-26T20:54:36.200Z,5.20
2018-03-26T20:57:05.524Z,4.63
2018-03-26T20:59:33.807Z,5.57
2018-03-26T21:02:02.071Z,5.37
2018-03-26T21:04:30.336Z,4.60
2018-03-26T21:06:58.641Z,4.30
2018-03-26T21:09:26.878Z,6.00
2018-03-26T21:11:55.139Z,6.10
2018-03-26T21:14:23.403Z,4.53
2018-03-26T21:16:51.655Z,5.83
2018-03-26T21:19:19.917Z,5.50
2018-03-26T21:21:48.964Z,5.17
2018-03-26T21:24:17.212Z,5.00
2018-03-26T21:26:46.238Z,5.33
2018-03-26T21:29:14.488Z,4.97
2018-03-26T21:31:43.504Z,4.20
2018-03-26T21:34:12.536Z,5.13
2018-03-26T21:36:40.810Z,5.30
2018-03-26T21:39:09.688Z,5.07
2018-03-26T21:41:37.983Z,4.57
2018-03-26T21:44:06.253Z,5.70
2018-03-26T21:46:34.504Z,5.20
2018-03-26T21:49:02.759Z,4.80
2018-03-26T21:51:31.017Z,5.40
2018-03-26T21:54:00.173Z,5.30
2018-03-26T21:56:28.430Z,4.77
2018-03-26T21:58:56.693Z,4.90
2018-03-26T22:01:24.998Z,6.53
2018-03-26T22:03:53.256Z,8.70
2018-03-26T22:06:21.553Z,10.23
2018-03-26T22:08:49.821Z,11.33
2018-03-26T22:11:18.081Z,8.37
2018-03-26T22:13:46.344Z,8.63
2018-03-26T22:16:14.596Z,8.77
2018-03-26T22:18:43.632Z,7.23
2018-03-26T22:21:11.899Z,6.30
2018-03-26T22:23:40.166Z,5.90
2018-03-26T22:26:08.426Z,6.93
2018-03-26T22:28:37.450Z,5.40
2018-03-26T22:31:05.742Z,5.30
2018-03-26T22:33:34.004Z,4.93
2018-03-26T22:36:02.266Z,5.00
2018-03-26T22:38:30.528Z,5.50
2018-03-26T22:40:58.798Z,5.40
2018-03-26T22:43:27.812Z,5.90
2018-03-26T22:45:56.068Z,5.63
2018-03-26T22:48:25.088Z,5.23
2018-03-26T22:50:53.336Z,9.57
2018-03-26T22:53:21.603Z,10.70
2018-03-26T22:55:50.642Z,10.57
2018-03-26T22:58:18.909Z,10.43
2018-03-26T23:00:47.180Z,7.57
2018-03-26T23:03:15.438Z,5.80
2018-03-26T23:05:43.702Z,8.10
2018-03-26T23:08:12.720Z,8.23
2018-03-26T23:10:40.982Z,5.73
2018-03-26T23:13:10.003Z,6.70
2018-03-26T23:15:38.259Z,7.00
2018-03-26T23:18:06.537Z,5.67
2018-03-26T23:20:35.362Z,6.10
2018-03-26T23:23:03.609Z,5.13
2018-03-26T23:25:31.861Z,6.20
2018-03-26T23:28:00.891Z,5.57
2018-03-26T23:30:29.175Z,5.33
2018-03-26T23:32:57.442Z,4.87
2018-03-26T23:35:25.719Z,6.60
2018-03-26T23:37:53.985Z,4.73
2018-03-26T23:40:22.248Z,5.03
2018-03-26T23:42:50.504Z,3.83
2018-03-26T23:45:18.766Z,5.60
2018-03-26T23:47:47.037Z,5.87
2018-03-26T23:50:15.334Z,6.10
2018-03-26T23:52:44.401Z,5.80
2018-03-26T23:55:12.659Z,4.63
2018-03-26T23:57:40.921Z,5.80
